Terminal Aerodrome Forecast
Issued by NWS

Home | Current Version | Previous Version | Text Only | Print | Product List | Glossary On
Versions: 1 2 3 4 5 6 7 8 9 10 11 12 13 14 15 16 17 18 19
000
FTUS42 KMLB 181141
TAFFPR
TAF
KFPR 181141Z 1812/1912 25004KT P6SM SCT015 OVC140
      TEMPO 1812/1813 5SM BR
     FM181400 25006KT P6SM SCT020 BKN120
     FM181900 09009KT P6SM VCTS SCT030CB BKN100
     FM190000 11004KT P6SM VCSH SCT030 BKN080 BKN250
     FM190300 VRB03KT P6SM FEW030 SCT080 BKN250=

USA.gov is the U.S. government's official web portal to all federal, state and local government web resources and services.